Time;durP1;ratioP1;P1;durP2;ratioP2;P2;SDS_P1;SDS_P2;PMS_P1;PMS_P2;Temp;Humidity;BMP_temperature;BMP_pressure;BME280_temperature;BME280_humidity;BME280_pressure;Samples;Min_cycle;Max_cycle;Signal;HPM_P1;HPM_P2
2021/10/19 00:01:01;;;;;;;30.37;13.73;;;9.30;99.90;;;;;;5025965;28;20737;-61
2021/10/19 00:03:28;;;;;;;42.83;17.13;;;9.40;99.90;;;;;;5024907;28;20211;-59
2021/10/19 00:05:53;;;;;;;38.20;12.63;;;9.30;99.90;;;;;;5025635;28;20188;-59
2021/10/19 00:08:19;;;;;;;18.87;12.73;;;9.40;99.90;;;;;;5026891;28;20927;-59
2021/10/19 00:10:45;;;;;;;30.83;12.07;;;9.30;99.90;;;;;;5024382;28;20679;-59
2021/10/19 00:13:11;;;;;;;24.07;13.30;;;9.40;99.90;;;;;;5026572;28;20207;-59
2021/10/19 00:15:36;;;;;;;26.77;13.13;;;9.50;99.90;;;;;;5024521;28;20747;-59
2021/10/19 00:18:02;;;;;;;19.80;12.63;;;9.40;99.90;;;;;;5026842;28;20933;-59
2021/10/19 00:20:28;;;;;;;20.90;11.10;;;9.40;99.90;;;;;;5025400;28;20688;-59
2021/10/19 00:22:54;;;;;;;29.73;12.10;;;9.60;99.90;;;;;;5025837;28;20639;-59
2021/10/19 00:25:19;;;;;;;27.37;13.90;;;9.40;99.90;;;;;;5008829;28;20188;-59
2021/10/19 00:27:45;;;;;;;22.73;13.50;;;9.50;99.90;;;;;;5028500;28;20197;-59
2021/10/19 00:30:12;;;;;;;24.80;13.07;;;9.50;99.90;;;;;;5022312;28;20216;-59
2021/10/19 00:32:39;;;;;;;23.67;13.80;;;9.60;99.90;;;;;;5025854;28;20470;-59
2021/10/19 00:35:06;;;;;;;20.73;12.50;;;9.60;99.90;;;;;;5023901;28;20478;-59
2021/10/19 00:37:32;;;;;;;15.77;11.67;;;9.50;99.90;;;;;;5023102;28;20467;-59
2021/10/19 00:39:58;;;;;;;22.83;12.40;;;9.60;99.90;;;;;;5026775;28;20403;-59
2021/10/19 00:42:23;;;;;;;21.13;12.03;;;9.60;99.90;;;;;;5024300;28;20432;-59
2021/10/19 00:44:49;;;;;;;18.60;12.07;;;9.50;99.90;;;;;;5019745;28;20197;-60
2021/10/19 00:47:19;;;;;;;21.60;13.10;;;9.40;99.90;;;;;;5024530;28;20212;-59
2021/10/19 00:49:46;;;;;;;19.07;12.53;;;9.40;99.90;;;;;;5021576;28;20200;-59
2021/10/19 00:52:12;;;;;;;17.97;12.90;;;9.30;99.90;;;;;;5026742;28;20467;-60
2021/10/19 00:54:38;;;;;;;21.63;15.07;;;9.20;99.90;;;;;;5024868;28;20941;-60
2021/10/19 00:57:04;;;;;;;20.30;14.23;;;9.30;99.90;;;;;;5023882;28;20572;-59
2021/10/19 00:59:31;;;;;;;18.43;11.57;;;9.30;99.90;;;;;;5026253;28;20420;-59
2021/10/19 01:01:56;;;;;;;20.90;13.40;;;9.40;99.90;;;;;;5022614;28;20232;-60
2021/10/19 01:04:22;;;;;;;23.20;13.30;;;9.40;99.90;;;;;;5021837;28;20936;-60
2021/10/19 01:06:48;;;;;;;18.87;11.73;;;9.30;99.90;;;;;;5026940;28;20180;-60
2021/10/19 01:09:14;;;;;;;23.03;12.73;;;9.30;99.90;;;;;;5023072;28;20200;-60
2021/10/19 01:11:39;;;;;;;18.40;11.80;;;9.40;99.90;;;;;;5024389;28;20473;-60
2021/10/19 01:14:05;;;;;;;22.10;12.97;;;9.30;99.90;;;;;;5022990;28;20199;-60
2021/10/19 01:16:31;;;;;;;22.83;14.37;;;9.30;99.90;;;;;;5023123;28;20713;-60
2021/10/19 01:18:57;;;;;;;23.73;14.13;;;9.30;99.90;;;;;;5026678;28;20705;-59
2021/10/19 01:21:23;;;;;;;23.30;15.00;;;9.20;99.90;;;;;;5022730;28;20219;-59
2021/10/19 01:23:49;;;;;;;35.73;14.23;;;9.00;99.90;;;;;;5025129;28;20442;-60
2021/10/19 01:26:15;;;;;;;26.83;15.70;;;9.10;99.90;;;;;;5025897;28;20426;-60
2021/10/19 01:28:44;;;;;;;33.03;15.20;;;9.10;99.90;;;;;;5021218;28;20434;-60
2021/10/19 01:31:12;;;;;;;22.30;13.53;;;9.20;99.90;;;;;;5024370;28;21008;-60
2021/10/19 01:33:38;;;;;;;20.60;13.73;;;9.30;99.90;;;;;;5025306;28;20787;-60
2021/10/19 01:36:06;;;;;;;19.43;12.80;;;9.60;99.90;;;;;;5023343;28;20433;-59
2021/10/19 01:38:34;;;;;;;22.00;13.53;;;9.70;99.90;;;;;;5025137;28;20423;-60
2021/10/19 01:41:02;;;;;;;26.23;12.77;;;9.70;99.90;;;;;;5021994;28;21002;-60
2021/10/19 01:43:29;;;;;;;21.47;13.40;;;9.70;99.90;;;;;;5022721;28;20442;-59
2021/10/19 01:46:01;;;;;;;21.87;13.50;;;9.40;99.90;;;;;;5025591;28;20490;-60
2021/10/19 01:48:28;;;;;;;18.87;12.90;;;9.50;99.90;;;;;;5022577;28;20442;-60
2021/10/19 01:50:54;;;;;;;20.80;12.90;;;9.40;99.90;;;;;;5020653;28;20466;-60
2021/10/19 01:53:21;;;;;;;24.30;14.03;;;9.60;99.90;;;;;;5007426;28;20427;-60
2021/10/19 01:55:47;;;;;;;20.43;11.60;;;9.40;99.90;;;;;;5023888;28;20929;-60
2021/10/19 01:58:13;;;;;;;27.13;12.80;;;9.30;99.90;;;;;;5026422;28;20875;-60
2021/10/19 02:00:40;;;;;;;18.47;12.80;;;9.30;99.90;;;;;;5024098;28;20462;-59
2021/10/19 02:03:07;;;;;;;21.20;13.10;;;9.30;99.90;;;;;;5026193;28;20419;-60
2021/10/19 02:05:33;;;;;;;19.80;12.37;;;9.30;99.90;;;;;;5028553;28;20445;-60
2021/10/19 02:08:02;;;;;;;23.07;14.03;;;9.50;99.90;;;;;;5028681;28;20414;-60
2021/10/19 02:10:28;;;;;;;22.03;12.70;;;9.60;99.90;;;;;;5026726;28;20447;-60
2021/10/19 02:12:54;;;;;;;22.30;14.07;;;9.40;99.90;;;;;;5028779;28;20466;-60
2021/10/19 02:15:24;;;;;;;22.80;13.77;;;9.40;99.90;;;;;;5026928;28;20193;-60
2021/10/19 02:17:50;;;;;;;19.50;13.07;;;9.50;99.90;;;;;;5024803;28;20249;-60
2021/10/19 02:20:15;;;;;;;23.10;14.03;;;9.30;99.90;;;;;;5028048;28;20454;-60
2021/10/19 02:22:41;;;;;;;23.97;14.23;;;9.50;99.90;;;;;;5011452;28;20224;-60
2021/10/19 02:25:07;;;;;;;25.07;15.20;;;9.70;99.90;;;;;;5029037;28;20283;-59
2021/10/19 02:27:33;;;;;;;22.70;14.13;;;9.80;99.90;;;;;;5026646;28;20243;-60
2021/10/19 02:29:58;;;;;;;19.37;13.40;;;9.50;99.90;;;;;;5026570;28;20863;-60
2021/10/19 02:32:24;;;;;;;20.20;13.90;;;9.60;99.90;;;;;;5026381;28;20210;-60
2021/10/19 02:34:49;;;;;;;18.53;12.63;;;9.80;99.90;;;;;;5027010;28;20176;-60
2021/10/19 02:37:15;;;;;;;21.23;13.37;;;9.60;99.90;;;;;;5027157;28;20598;-59
2021/10/19 02:39:41;;;;;;;18.73;13.03;;;9.70;99.90;;;;;;5026935;28;20173;-60
2021/10/19 02:42:06;;;;;;;19.70;12.83;;;9.60;99.90;;;;;;5024859;28;20270;-59
2021/10/19 02:44:32;;;;;;;19.37;13.20;;;9.70;99.90;;;;;;5029314;28;20204;-60
2021/10/19 02:46:58;;;;;;;17.63;13.50;;;9.90;99.90;;;;;;5027575;28;20193;-60
2021/10/19 02:49:23;;;;;;;19.83;12.07;;;10.00;99.90;;;;;;5027333;28;20197;-59
2021/10/19 02:51:49;;;;;;;19.77;12.77;;;9.90;99.90;;;;;;5027960;28;20643;-60
2021/10/19 02:54:14;;;;;;;18.50;12.13;;;9.90;99.90;;;;;;5026097;28;20192;-59
2021/10/19 02:56:40;;;;;;;20.10;13.20;;;9.70;99.90;;;;;;5028986;28;20188;-60
2021/10/19 02:59:06;;;;;;;16.60;11.03;;;9.40;99.90;;;;;;5026039;28;20220;-60
2021/10/19 03:01:32;;;;;;;18.07;11.60;;;9.50;99.90;;;;;;5025109;28;20227;-60
2021/10/19 03:03:58;;;;;;;17.53;11.20;;;9.60;99.90;;;;;;5025736;28;20177;-59
2021/10/19 03:06:24;;;;;;;14.33;11.90;;;9.60;99.90;;;;;;5026905;28;20458;-59
2021/10/19 03:08:49;;;;;;;14.63;11.03;;;9.70;99.90;;;;;;5027541;28;20199;-60
2021/10/19 03:11:15;;;;;;;14.33;10.17;;;9.90;99.90;;;;;;5030096;28;20343;-60
2021/10/19 03:13:41;;;;;;;13.37;10.30;;;9.80;99.90;;;;;;5024203;28;20192;-60
2021/10/19 03:16:06;;;;;;;10.77;8.80;;;9.90;99.90;;;;;;5026512;28;20200;-60
2021/10/19 03:18:32;;;;;;;13.03;9.47;;;9.90;99.90;;;;;;5024960;28;20188;-60
2021/10/19 03:20:58;;;;;;;12.00;10.20;;;9.90;99.90;;;;;;5028577;28;20205;-60
2021/10/19 03:23:23;;;;;;;12.87;9.50;;;9.70;99.90;;;;;;5028367;28;20224;-60
2021/10/19 03:25:49;;;;;;;11.77;9.20;;;9.80;99.90;;;;;;5023829;28;20260;-59
2021/10/19 03:28:15;;;;;;;9.13;8.20;;;10.00;99.90;;;;;;5025766;28;20184;-60
2021/10/19 03:30:41;;;;;;;11.70;8.70;;;10.20;99.90;;;;;;5023810;28;20444;-60
2021/10/19 03:33:07;;;;;;;10.83;8.30;;;10.20;99.90;;;;;;5025819;28;20652;-60
2021/10/19 03:35:32;;;;;;;10.47;8.80;;;10.20;99.90;;;;;;5026768;28;20222;-60
2021/10/19 03:37:58;;;;;;;11.37;9.70;;;10.00;99.90;;;;;;5027774;28;20419;-60
2021/10/19 03:40:23;;;;;;;12.13;9.40;;;9.90;99.90;;;;;;5024995;28;20220;-60
2021/10/19 03:42:49;;;;;;;12.13;9.73;;;9.80;99.90;;;;;;5028554;28;20337;-60
2021/10/19 03:45:16;;;;;;;11.53;10.07;;;9.90;99.90;;;;;;5026905;28;20542;-60
2021/10/19 03:47:41;;;;;;;12.23;9.43;;;9.80;99.90;;;;;;5024779;28;20542;-60
2021/10/19 03:50:09;;;;;;;15.57;11.33;;;9.70;99.90;;;;;;5024886;28;20469;-60
2021/10/19 03:52:35;;;;;;;14.63;10.53;;;9.70;99.90;;;;;;5025130;28;20239;-61
2021/10/19 03:55:01;;;;;;;14.17;10.57;;;9.70;99.90;;;;;;5025289;28;20419;-60
2021/10/19 03:57:26;;;;;;;13.10;10.77;;;9.70;99.90;;;;;;5027331;28;20424;-60
2021/10/19 03:59:52;;;;;;;11.93;10.23;;;9.80;99.90;;;;;;5023425;28;20220;-60
2021/10/19 04:02:18;;;;;;;15.40;11.13;;;9.80;99.90;;;;;;5028621;28;20271;-60
2021/10/19 04:04:43;;;;;;;15.07;11.40;;;9.90;99.90;;;;;;5026970;28;20408;-60
2021/10/19 04:07:11;;;;;;;12.13;9.53;;;9.80;99.90;;;;;;5029974;28;20177;-60
2021/10/19 04:09:36;;;;;;;15.20;11.27;;;9.80;99.90;;;;;;5024427;28;20204;-60
2021/10/19 04:12:02;;;;;;;13.20;10.20;;;9.80;99.90;;;;;;5011821;28;20482;-59
2021/10/19 04:14:28;;;;;;;13.83;10.53;;;9.80;99.90;;;;;;5024695;28;20176;-59
2021/10/19 04:16:53;;;;;;;14.93;11.53;;;10.20;99.90;;;;;;5024721;28;20184;-60
2021/10/19 04:19:19;;;;;;;15.23;10.80;;;10.00;99.90;;;;;;5026337;28;20191;-60
2021/10/19 04:21:49;;;;;;;12.20;10.37;;;9.90;99.90;;;;;;5026723;28;20223;-59
2021/10/19 04:24:15;;;;;;;15.87;11.63;;;10.10;99.90;;;;;;5025872;28;20215;-60
2021/10/19 04:26:42;;;;;;;17.20;11.37;;;10.30;99.90;;;;;;5024766;28;20439;-60
2021/10/19 04:29:09;;;;;;;13.87;11.07;;;10.50;99.90;;;;;;5026503;28;20193;-60
2021/10/19 04:31:36;;;;;;;14.83;11.93;;;10.30;99.90;;;;;;5025962;28;20738;-59
2021/10/19 04:34:03;;;;;;;15.00;10.80;;;10.20;99.90;;;;;;5025051;28;20460;-60
2021/10/19 04:36:28;;;;;;;15.47;11.20;;;10.00;99.90;;;;;;5027216;28;20442;-60
2021/10/19 04:38:54;;;;;;;18.30;12.20;;;10.00;99.90;;;;;;5026245;28;20838;-60
2021/10/19 04:41:20;;;;;;;14.80;10.53;;;10.20;99.90;;;;;;5023234;28;20223;-59
2021/10/19 04:43:45;;;;;;;15.90;11.70;;;10.30;99.90;;;;;;5023173;28;20188;-59
2021/10/19 04:46:11;;;;;;;14.07;11.37;;;10.10;99.90;;;;;;5024783;28;20577;-60
2021/10/19 04:48:37;;;;;;;16.97;12.07;;;10.00;99.90;;;;;;5023794;28;20200;-60
2021/10/19 04:51:03;;;;;;;16.40;13.00;;;10.00;99.90;;;;;;5025509;28;20224;-60
2021/10/19 04:53:30;;;;;;;15.87;11.77;;;10.10;99.90;;;;;;5026097;28;20215;-60
2021/10/19 04:55:56;;;;;;;15.77;11.40;;;10.20;99.90;;;;;;5024764;28;20420;-59
2021/10/19 04:58:21;;;;;;;16.97;12.20;;;10.20;99.90;;;;;;5023960;28;20462;-59
2021/10/19 05:00:47;;;;;;;15.60;11.30;;;10.10;99.90;;;;;;5023221;28;20401;-59
2021/10/19 05:03:22;;;;;;;24.13;12.47;;;9.90;99.90;;;;;;5027999;28;20560;-60
2021/10/19 05:05:49;;;;;;;17.53;12.40;;;10.00;99.90;;;;;;5008648;28;20295;-59
2021/10/19 05:08:14;;;;;;;18.83;13.40;;;10.00;99.90;;;;;;5024235;28;20433;-59
2021/10/19 05:10:42;;;;;;;18.43;13.07;;;10.00;99.90;;;;;;5025300;28;20811;-60
2021/10/19 05:13:09;;;;;;;18.67;12.07;;;9.90;99.90;;;;;;5024641;28;20302;-60
2021/10/19 05:15:34;;;;;;;16.20;11.50;;;9.90;99.90;;;;;;5024249;28;20446;-60
2021/10/19 05:18:00;;;;;;;16.40;11.47;;;10.20;99.90;;;;;;5026076;28;21059;-60
2021/10/19 05:20:26;;;;;;;18.30;12.50;;;10.30;99.90;;;;;;5024405;28;20208;-60
2021/10/19 05:22:51;;;;;;;16.30;11.97;;;10.20;99.90;;;;;;5024283;28;20204;-61
2021/10/19 05:25:17;;;;;;;15.20;10.97;;;10.20;99.90;;;;;;5024982;28;20196;-60
2021/10/19 05:27:45;;;;;;;15.67;11.60;;;10.30;99.90;;;;;;5020827;28;20444;-60
2021/10/19 05:30:11;;;;;;;18.47;11.27;;;10.10;99.90;;;;;;5021765;28;20227;-60
2021/10/19 05:32:37;;;;;;;19.03;12.70;;;10.10;99.90;;;;;;5025379;28;20462;-60
2021/10/19 05:35:03;;;;;;;16.13;11.57;;;10.20;99.90;;;;;;5022052;28;21158;-60
2021/10/19 05:37:28;;;;;;;16.83;11.83;;;10.20;99.90;;;;;;5024315;28;20218;-60
2021/10/19 05:39:54;;;;;;;14.37;10.87;;;10.40;99.90;;;;;;5022645;28;20499;-62
2021/10/19 05:42:20;;;;;;;14.10;11.70;;;10.50;99.90;;;;;;5023573;28;20188;-62
2021/10/19 05:44:45;;;;;;;14.20;11.13;;;10.30;99.90;;;;;;5024899;28;20266;-62
2021/10/19 05:47:12;;;;;;;15.43;10.17;;;10.30;99.90;;;;;;5023696;28;20917;-62
2021/10/19 05:49:38;;;;;;;15.00;10.93;;;10.40;99.90;;;;;;5020583;28;20242;-62
2021/10/19 05:52:04;;;;;;;14.70;10.87;;;10.30;99.90;;;;;;5024945;28;21027;-62
2021/10/19 05:54:29;;;;;;;15.50;10.97;;;10.10;99.90;;;;;;5022930;28;20543;-62
2021/10/19 05:56:55;;;;;;;14.53;11.27;;;10.30;99.90;;;;;;5024652;28;20501;-61
2021/10/19 05:59:21;;;;;;;16.73;12.63;;;10.70;99.90;;;;;;5024428;28;20189;-62
2021/10/19 06:01:47;;;;;;;12.50;10.10;;;10.70;99.90;;;;;;5022966;28;20306;-62
2021/10/19 06:04:13;;;;;;;16.07;11.50;;;10.60;99.90;;;;;;5025273;28;20908;-60
2021/10/19 06:06:39;;;;;;;15.10;10.87;;;10.50;99.90;;;;;;5023412;28;20469;-61
2021/10/19 06:09:04;;;;;;;13.40;10.53;;;10.50;99.90;;;;;;5021851;28;20196;-60
2021/10/19 06:11:30;;;;;;;13.67;10.63;;;10.40;99.90;;;;;;5023918;28;20212;-61
2021/10/19 06:13:56;;;;;;;14.83;10.77;;;10.60;99.90;;;;;;5021819;28;20271;-61
2021/10/19 06:16:22;;;;;;;13.57;11.00;;;10.80;99.90;;;;;;5023850;28;20486;-61
2021/10/19 06:18:47;;;;;;;16.60;12.67;;;10.90;99.90;;;;;;5022475;28;20240;-61
2021/10/19 06:21:14;;;;;;;15.70;11.13;;;10.80;99.90;;;;;;5023690;28;20213;-61
2021/10/19 06:23:39;;;;;;;18.70;13.23;;;10.80;99.90;;;;;;5025334;28;20246;-61
2021/10/19 06:26:05;;;;;;;16.50;12.60;;;10.80;99.90;;;;;;5021982;28;20448;-61
2021/10/19 06:28:31;;;;;;;14.43;10.83;;;10.70;99.90;;;;;;5024348;28;20203;-61
2021/10/19 06:30:57;;;;;;;17.27;12.43;;;10.70;99.90;;;;;;5024826;28;20266;-62
2021/10/19 06:33:23;;;;;;;14.10;10.70;;;10.70;99.90;;;;;;5021797;28;20925;-61
2021/10/19 06:35:48;;;;;;;18.83;13.00;;;10.70;99.90;;;;;;5006694;28;20247;-61
2021/10/19 06:38:14;;;;;;;15.20;11.40;;;11.10;99.90;;;;;;5023593;28;20212;-61
2021/10/19 06:40:39;;;;;;;14.63;11.90;;;10.90;99.90;;;;;;5018965;28;20247;-61
2021/10/19 06:43:05;;;;;;;14.93;10.83;;;10.80;99.90;;;;;;5018714;28;20226;-61
2021/10/19 06:45:32;;;;;;;14.80;11.50;;;10.50;99.90;;;;;;5022311;28;20375;-61
2021/10/19 06:47:58;;;;;;;16.40;11.27;;;10.60;99.90;;;;;;5026052;28;20222;-61
2021/10/19 06:50:23;;;;;;;17.23;12.10;;;10.90;99.90;;;;;;5026048;28;20956;-60
2021/10/19 06:52:49;;;;;;;17.80;11.50;;;10.90;99.90;;;;;;5026129;28;20212;-60
2021/10/19 06:55:15;;;;;;;15.90;12.47;;;10.80;99.90;;;;;;5027647;28;20612;-62
2021/10/19 06:57:43;;;;;;;14.30;11.07;;;10.80;99.90;;;;;;5027043;28;20204;-62
2021/10/19 07:00:11;;;;;;;19.30;11.60;;;10.80;99.90;;;;;;5024305;28;20462;-62
2021/10/19 07:02:36;;;;;;;15.83;12.40;;;10.70;99.90;;;;;;5026645;28;20505;-62
2021/10/19 07:05:03;;;;;;;17.40;12.43;;;10.60;99.90;;;;;;5028031;28;20825;-62
2021/10/19 07:07:28;;;;;;;16.93;12.57;;;10.60;99.90;;;;;;5024419;28;20485;-62
2021/10/19 07:09:54;;;;;;;17.07;12.17;;;10.80;99.90;;;;;;5021532;28;20582;-62
2021/10/19 07:12:20;;;;;;;15.13;12.17;;;10.90;99.90;;;;;;5028447;28;20212;-62
2021/10/19 07:14:47;;;;;;;14.60;11.33;;;10.90;99.90;;;;;;5023806;28;20193;-62
2021/10/19 07:17:13;;;;;;;14.80;11.13;;;10.90;99.90;;;;;;5023698;28;20203;-62
2021/10/19 07:19:40;;;;;;;14.50;10.97;;;11.40;99.90;;;;;;5026088;28;20431;-62
2021/10/19 07:22:06;;;;;;;17.53;12.27;;;11.20;99.90;;;;;;5026446;28;20791;-62
2021/10/19 07:24:31;;;;;;;18.00;11.80;;;11.00;99.90;;;;;;5024597;28;20478;-62
2021/10/19 07:26:57;;;;;;;15.30;11.87;;;10.90;99.90;;;;;;5025798;28;21010;-62
2021/10/19 07:29:23;;;;;;;19.30;14.13;;;10.90;99.90;;;;;;5026633;28;20713;-62
2021/10/19 07:31:48;;;;;;;15.20;11.63;;;11.00;99.90;;;;;;5025200;28;20224;-62
2021/10/19 07:34:14;;;;;;;15.13;11.83;;;11.20;99.90;;;;;;5010939;28;20250;-62
2021/10/19 07:36:40;;;;;;;13.93;11.33;;;11.40;99.90;;;;;;5025269;28;20634;-62
2021/10/19 07:39:06;;;;;;;15.17;11.20;;;11.40;99.90;;;;;;5027929;28;20229;-62
2021/10/19 07:41:34;;;;;;;14.23;10.90;;;11.40;99.90;;;;;;5011061;28;20216;-61
2021/10/19 07:44:00;;;;;;;13.80;11.43;;;11.30;99.90;;;;;;5023414;28;20450;-61
2021/10/19 07:46:26;;;;;;;15.73;11.90;;;11.30;99.90;;;;;;5027275;28;20933;-61
2021/10/19 07:48:51;;;;;;;24.13;13.20;;;11.30;99.90;;;;;;5026164;28;20755;-61
2021/10/19 07:51:17;;;;;;;14.33;11.97;;;11.20;99.90;;;;;;5021761;28;20221;-61
2021/10/19 07:53:43;;;;;;;15.63;12.20;;;11.00;99.90;;;;;;5026263;28;20673;-61
2021/10/19 07:56:08;;;;;;;16.97;12.43;;;11.10;99.90;;;;;;5025790;28;20242;-61
2021/10/19 07:58:34;;;;;;;15.03;12.53;;;11.10;99.90;;;;;;5025314;28;20192;-61
2021/10/19 08:00:59;;;;;;;17.27;13.63;;;11.20;99.90;;;;;;5022642;28;20288;-61
2021/10/19 08:03:25;;;;;;;15.57;12.77;;;11.20;99.90;;;;;;5027764;28;20394;-61
2021/10/19 08:05:51;;;;;;;19.63;14.47;;;11.20;99.90;;;;;;5025157;28;20197;-61
2021/10/19 08:08:17;;;;;;;19.10;13.53;;;11.20;99.90;;;;;;5024590;28;20238;-61
2021/10/19 08:10:45;;;;;;;22.40;14.50;;;11.20;99.90;;;;;;5022786;28;20287;-61
2021/10/19 08:13:13;;;;;;;17.93;12.70;;;11.20;99.90;;;;;;5023129;28;20478;-61
2021/10/19 08:15:40;;;;;;;20.27;14.90;;;11.30;99.90;;;;;;5025661;28;20854;-61
2021/10/19 08:18:07;;;;;;;18.47;13.73;;;11.40;99.90;;;;;;5024720;28;20442;-61
2021/10/19 08:20:33;;;;;;;16.07;13.20;;;11.50;99.90;;;;;;5016389;28;20459;-61
2021/10/19 08:22:58;;;;;;;16.40;13.73;;;11.50;99.90;;;;;;5023210;28;20508;-61
2021/10/19 08:25:24;;;;;;;20.63;14.60;;;11.50;99.90;;;;;;5020487;28;20835;-61
2021/10/19 08:27:50;;;;;;;18.50;14.10;;;11.50;99.90;;;;;;5023735;28;20200;-61
2021/10/19 08:30:18;;;;;;;18.73;12.83;;;11.40;99.90;;;;;;5024655;28;20228;-62
2021/10/19 08:32:44;;;;;;;18.90;12.87;;;11.60;99.90;;;;;;5023079;28;20251;-61
2021/10/19 08:35:11;;;;;;;16.70;13.07;;;11.70;99.90;;;;;;5017014;28;20424;-61
2021/10/19 08:37:37;;;;;;;16.40;13.03;;;11.70;99.90;;;;;;5023091;28;20443;-61
2021/10/19 08:40:04;;;;;;;15.40;12.40;;;11.80;99.90;;;;;;5021025;28;20530;-62
2021/10/19 08:42:30;;;;;;;21.73;13.77;;;11.60;99.90;;;;;;5021076;28;20463;-62
2021/10/19 08:44:56;;;;;;;20.43;13.43;;;11.70;99.90;;;;;;5025786;28;20471;-62
2021/10/19 08:47:22;;;;;;;17.60;13.53;;;11.70;99.90;;;;;;5024201;28;20466;-62
2021/10/19 08:49:48;;;;;;;15.77;12.20;;;11.80;99.90;;;;;;5024837;28;20203;-62
2021/10/19 08:52:14;;;;;;;17.27;13.80;;;12.00;99.90;;;;;;5023824;28;20236;-62
2021/10/19 08:54:41;;;;;;;18.17;12.40;;;12.10;99.90;;;;;;5024562;28;20949;-62
2021/10/19 08:57:15;;;;;;;15.53;11.80;;;12.10;99.90;;;;;;5023080;28;20704;-61
2021/10/19 08:59:44;;;;;;;15.97;11.30;;;12.10;99.90;;;;;;5023836;28;20555;-61
2021/10/19 09:02:10;;;;;;;13.20;11.13;;;12.30;99.90;;;;;;5024279;28;20448;-61
2021/10/19 09:04:35;;;;;;;17.20;10.70;;;12.50;99.90;;;;;;5024500;28;20447;-61
2021/10/19 09:07:01;;;;;;;16.23;13.03;;;12.60;99.90;;;;;;5024630;28;20944;-61
2021/10/19 09:09:27;;;;;;;18.23;12.00;;;12.50;99.90;;;;;;5022193;28;20730;-61
2021/10/19 09:11:56;;;;;;;15.23;11.73;;;12.70;99.90;;;;;;5020599;28;20212;-61
2021/10/19 09:14:32;;;;;;;13.80;11.33;;;13.00;99.90;;;;;;5024408;28;20184;-62
2021/10/19 09:17:00;;;;;;;13.97;11.17;;;13.20;99.90;;;;;;5024961;28;20419;-60
2021/10/19 09:19:28;;;;;;;13.90;10.97;;;13.40;99.90;;;;;;5022973;28;20446;-59
2021/10/19 09:22:02;;;;;;;13.17;10.80;;;13.40;99.90;;;;;;5025943;28;20458;-59
2021/10/19 09:24:32;;;;;;;13.37;11.90;;;13.50;99.90;;;;;;5022674;28;20456;-60
2021/10/19 09:27:15;;;;;;;14.93;11.50;;;13.70;99.90;;;;;;5022712;28;20961;-59
2021/10/19 09:29:43;;;;;;;12.10;10.63;;;13.70;99.90;;;;;;5020956;28;20477;-59
2021/10/19 09:32:09;;;;;;;14.40;11.40;;;13.80;99.90;;;;;;5021903;28;20536;-59
2021/10/19 09:34:37;;;;;;;13.87;11.10;;;13.90;99.90;;;;;;5025512;28;20727;-59
2021/10/19 09:37:05;;;;;;;17.53;10.93;;;13.90;99.90;;;;;;5022853;28;20875;-59
2021/10/19 09:39:42;;;;;;;15.60;11.80;;;13.80;99.90;;;;;;5019873;28;21056;-59
2021/10/19 09:42:10;;;;;;;11.90;10.13;;;14.10;99.90;;;;;;5022985;28;20466;-60
2021/10/19 09:44:36;;;;;;;15.10;11.10;;;14.10;99.90;;;;;;5023708;28;20443;-59
2021/10/19 09:47:03;;;;;;;13.70;10.70;;;14.20;99.90;;;;;;5008738;28;20843;-60
2021/10/19 09:49:30;;;;;;;15.33;11.10;;;14.40;99.90;;;;;;5021383;28;20439;-61
2021/10/19 09:52:00;;;;;;;13.63;10.80;;;14.40;99.90;;;;;;5020928;28;20474;-59
2021/10/19 09:54:29;;;;;;;12.67;10.57;;;14.50;99.90;;;;;;5023022;28;20497;-61
2021/10/19 09:56:58;;;;;;;14.13;10.33;;;14.70;99.90;;;;;;5023804;28;20415;-60
2021/10/19 09:59:25;;;;;;;13.40;11.50;;;14.70;99.90;;;;;;5021367;28;20473;-60
2021/10/19 10:01:51;;;;;;;13.13;10.90;;;14.60;99.90;;;;;;5023636;28;20823;-60
2021/10/19 10:04:18;;;;;;;15.27;10.10;;;14.80;99.90;;;;;;5023394;28;20441;-60
2021/10/19 10:06:44;;;;;;;13.80;10.20;;;14.90;99.90;;;;;;5021702;28;20439;-60
2021/10/19 10:09:10;;;;;;;11.33;9.50;;;15.00;99.90;;;;;;5023825;28;20446;-60
2021/10/19 10:11:41;;;;;;;12.60;10.33;;;15.00;99.90;;;;;;5023996;28;20961;-60
2021/10/19 10:14:07;;;;;;;12.77;10.90;;;15.00;99.90;;;;;;5022111;28;20440;-60
2021/10/19 10:16:49;;;;;;;10.90;9.57;;;15.00;99.90;;;;;;5025093;28;20435;-60
2021/10/19 10:19:20;;;;;;;13.73;9.10;;;14.80;99.90;;;;;;5023534;28;20626;-60
2021/10/19 10:21:51;;;;;;;12.33;10.53;;;14.90;99.90;;;;;;5020418;28;20490;-60
2021/10/19 10:24:31;;;;;;;10.10;8.50;;;14.80;99.90;;;;;;5029202;28;20431;-60
2021/10/19 10:27:12;;;;;;;12.03;10.40;;;14.80;99.90;;;;;;5028406;28;20796;-60
2021/10/19 10:29:40;;;;;;;14.70;10.60;;;14.70;99.90;;;;;;5027047;28;20439;-60
2021/10/19 10:32:06;;;;;;;11.17;9.40;;;14.70;99.90;;;;;;5026724;28;21021;-60
2021/10/19 10:34:33;;;;;;;14.40;9.83;;;14.70;99.90;;;;;;5028623;28;20442;-60
2021/10/19 10:37:11;;;;;;;11.90;10.10;;;14.60;99.90;;;;;;5009532;28;20451;-60
2021/10/19 10:39:43;;;;;;;11.50;10.30;;;14.60;99.90;;;;;;5029075;28;20437;-60
2021/10/19 10:42:10;;;;;;;13.90;10.80;;;14.50;99.90;;;;;;5025909;28;20949;-60
2021/10/19 10:44:38;;;;;;;11.40;10.20;;;14.60;99.90;;;;;;5025778;28;20466;-60
2021/10/19 10:47:04;;;;;;;12.93;9.57;;;14.60;99.90;;;;;;5026671;28;20423;-59
2021/10/19 10:49:32;;;;;;;10.63;9.63;;;14.70;99.90;;;;;;5026192;28;20430;-59
2021/10/19 10:51:59;;;;;;;10.50;9.30;;;14.80;99.90;;;;;;5025944;28;20478;-60
2021/10/19 10:54:26;;;;;;;12.80;9.60;;;14.80;99.90;;;;;;5028740;28;20481;-59
2021/10/19 10:56:53;;;;;;;16.30;10.00;;;14.90;99.90;;;;;;5027501;28;20427;-59
2021/10/19 10:59:37;;;;;;;11.93;10.33;;;14.90;99.90;;;;;;5026892;28;20445;-59
2021/10/19 11:02:10;;;;;;;12.37;9.73;;;14.90;99.90;;;;;;5029118;28;20439;-60
2021/10/19 11:04:49;;;;;;;11.03;9.43;;;15.00;99.90;;;;;;5024545;28;20443;-60
2021/10/19 11:07:34;;;;;;;12.07;9.37;;;15.10;99.90;;;;;;5025332;28;20424;-61
2021/10/19 11:10:14;;;;;;;12.53;9.63;;;15.20;99.90;;;;;;5024527;28;20965;-60
2021/10/19 11:12:41;;;;;;;13.80;9.27;;;15.20;99.90;;;;;;5025539;28;20466;-60
2021/10/19 11:15:13;;;;;;;12.70;8.50;;;15.20;99.90;;;;;;5024800;28;20587;-60
2021/10/19 11:17:50;;;;;;;9.47;7.90;;;15.30;99.90;;;;;;5023645;28;20494;-61
2021/10/19 11:20:20;;;;;;;11.60;8.63;;;15.30;99.90;;;;;;5026923;28;20462;-61
2021/10/19 11:22:48;;;;;;;9.40;8.40;;;15.40;99.90;;;;;;5025503;28;20438;-60
2021/10/19 11:25:15;;;;;;;10.43;9.33;;;15.40;99.90;;;;;;5030082;28;20925;-61
2021/10/19 11:27:44;;;;;;;10.43;7.63;;;15.50;99.90;;;;;;5010295;28;20447;-61
2021/10/19 11:30:11;;;;;;;14.63;9.77;;;15.60;99.90;;;;;;5027076;28;20451;-60
2021/10/19 11:32:38;;;;;;;11.90;8.93;;;15.70;99.90;;;;;;5026811;28;20466;-60
2021/10/19 11:35:05;;;;;;;10.27;9.17;;;15.90;99.90;;;;;;5008500;28;20462;-59
2021/10/19 11:37:31;;;;;;;10.33;9.10;;;16.00;99.90;;;;;;5028800;28;20523;-60
2021/10/19 11:40:09;;;;;;;9.53;8.57;;;16.20;99.90;;;;;;5024574;28;20474;-60
2021/10/19 11:42:44;;;;;;;11.10;8.60;;;16.40;99.90;;;;;;5011008;28;20870;-61
2021/10/19 11:45:11;;;;;;;9.83;7.97;;;16.50;99.90;;;;;;5023570;28;20439;-61
2021/10/19 11:47:49;;;;;;;9.70;7.13;;;16.70;99.90;;;;;;5024036;28;20511;-61
2021/10/19 11:50:17;;;;;;;8.10;6.10;;;17.10;99.90;;;;;;5024105;28;20557;-61
2021/10/19 11:52:44;;;;;;;9.13;6.70;;;17.50;99.90;;;;;;5025949;28;20558;-61
2021/10/19 11:55:10;;;;;;;7.03;6.00;;;17.90;99.90;;;;;;5025842;28;21035;-61
2021/10/19 11:57:38;;;;;;;7.10;6.07;;;17.90;99.90;;;;;;5023455;28;21620;-60
2021/10/19 12:00:10;;;;;;;7.80;6.53;;;17.90;99.90;;;;;;5019032;28;20436;-60
2021/10/19 12:02:45;;;;;;;6.47;5.13;;;18.10;99.90;;;;;;5023012;28;20433;-60
2021/10/19 12:05:11;;;;;;;7.10;5.63;;;18.30;99.90;;;;;;5024433;28;20446;-60
2021/10/19 12:07:48;;;;;;;5.73;4.80;;;18.30;99.90;;;;;;5028161;28;20438;-60
2021/10/19 12:10:15;;;;;;;5.50;4.77;;;18.20;99.90;;;;;;5022875;28;20227;-59
2021/10/19 12:13:10;;;;;;;5.63;4.77;;;18.30;99.90;;;;;;5023697;28;20533;-60
2021/10/19 12:15:38;;;;;;;6.10;5.43;;;18.30;99.90;;;;;;5023865;28;20964;-60
2021/10/19 12:18:23;;;;;;;7.60;5.50;;;18.20;99.90;;;;;;5022355;28;20858;-60
2021/10/19 12:20:49;;;;;;;5.63;4.80;;;18.20;99.90;;;;;;5025755;28;20486;-60
2021/10/19 12:23:18;;;;;;;6.40;4.27;;;18.10;99.90;;;;;;5020857;28;20950;-60
2021/10/19 12:25:47;;;;;;;6.40;4.67;;;18.20;99.90;;;;;;5024720;28;20214;-60
2021/10/19 12:28:27;;;;;;;7.40;4.67;;;18.30;99.90;;;;;;5020504;28;20977;-60
2021/10/19 12:30:54;;;;;;;8.83;5.13;;;18.30;99.90;;;;;;5023432;28;20500;-60
2021/10/19 12:33:23;;;;;;;5.97;4.10;;;18.20;99.90;;;;;;5024473;28;20793;-60